Brock, Texas
Current Conditions -  °F | °C
As of 4:35 PM on Monday 20 Oct 2014 (Local Time) from KGDJ Reporting Station
Clear Clear  
Wind Chill: 83°   Ceiling: Unl
Heat Index: 83°   Visibility: 10mi
Dew Point: 55°   Wind: 6mph
Humidity: 39%   Direction: 150°SSE
Pressure: 30.02"   Gusts: NA
Location:  32.6854°N, 97.7998°W
Report Text: KGDJ 202135Z AUTO 15005KT 10SM CLR 28/13 A3002 RMK AO2 T02820130
Loading
Personal Weather Stations






























Interactive Weather Map
Tropical Storm Tracking
New forecast layout! Learn more

10-Day Weather Forecast

Advertisements
Track Severe Weather on mobile